createdAt,value
2022-08-18T00:02:05.418Z,17.50
2022-08-18T00:04:52.822Z,17.50
2022-08-18T00:07:41.980Z,17.50
2022-08-18T00:10:32.845Z,17.53
2022-08-18T00:13:18.009Z,17.53
2022-08-18T00:16:03.273Z,17.44
2022-08-18T00:18:49.790Z,17.41
2022-08-18T00:21:34.750Z,17.40
2022-08-18T00:24:20.081Z,17.36
2022-08-18T00:27:06.835Z,17.37
2022-08-18T00:29:54.551Z,17.38
2022-08-18T00:32:49.602Z,17.40
2022-08-18T00:35:37.956Z,17.42
2022-08-18T00:38:24.819Z,17.45
2022-08-18T00:41:10.679Z,17.48
2022-08-18T00:43:58.431Z,17.51
2022-08-18T00:46:43.658Z,17.53
2022-08-18T00:49:28.865Z,17.46
2022-08-18T00:52:16.617Z,17.57
2022-08-18T00:55:04.083Z,17.61
2022-08-18T00:57:52.221Z,17.58
2022-08-18T01:00:38.144Z,17.66
2022-08-18T01:03:25.296Z,17.73
2022-08-18T01:06:22.354Z,17.80
2022-08-18T01:09:08.722Z,17.87
2022-08-18T01:11:53.685Z,17.85
2022-08-18T01:14:38.917Z,17.92
2022-08-18T01:17:44.619Z,17.99
2022-08-18T01:21:20.775Z,17.98
2022-08-18T01:24:12.705Z,18.07
2022-08-18T01:26:57.731Z,18.09
2022-08-18T01:29:43.694Z,18.13
2022-08-18T01:32:28.695Z,18.15
2022-08-18T01:35:17.457Z,18.19
2022-08-18T01:38:02.578Z,18.21
2022-08-18T01:41:22.453Z,18.24
2022-08-18T01:43:52.613Z,18.17
2022-08-18T01:46:41.525Z,18.26
2022-08-18T01:49:28.817Z,18.27
2022-08-18T01:52:21.816Z,18.30
2022-08-18T01:55:09.944Z,18.25
2022-08-18T01:57:55.644Z,18.30
2022-08-18T02:00:42.102Z,18.30
2022-08-18T02:03:30.879Z,18.29
2022-08-18T02:06:18.577Z,18.30
2022-08-18T02:09:23.675Z,18.22
2022-08-18T02:12:10.030Z,18.27
2022-08-18T02:14:55.189Z,18.31
2022-08-18T02:17:46.115Z,18.32
2022-08-18T02:20:31.856Z,18.32
2022-08-18T02:23:17.765Z,18.23
2022-08-18T02:26:08.681Z,18.28
2022-08-18T02:28:54.129Z,18.30
2022-08-18T02:31:39.232Z,18.27
2022-08-18T02:34:25.487Z,18.30
2022-08-18T02:37:15.198Z,18.25
2022-08-18T02:40:01.331Z,18.23
2022-08-18T02:42:47.172Z,18.17
2022-08-18T02:45:32.761Z,18.12
2022-08-18T02:48:24.286Z,18.00
2022-08-18T02:51:15.545Z,18.00
2022-08-18T02:54:00.630Z,17.94
2022-08-18T02:56:46.962Z,18.07
2022-08-18T02:59:32.184Z,18.08
2022-08-18T03:02:18.785Z,18.11
2022-08-18T03:05:05.826Z,18.13
2022-08-18T03:07:51.292Z,18.18
2022-08-18T03:10:36.930Z,18.18
2022-08-18T03:13:21.957Z,18.15
2022-08-18T03:16:07.434Z,18.18
2022-08-18T03:18:53.576Z,18.19
2022-08-18T03:21:38.893Z,18.18
2022-08-18T03:24:26.461Z,18.22
2022-08-18T03:27:12.761Z,18.22
2022-08-18T03:29:58.776Z,18.21
2022-08-18T03:32:45.907Z,18.20
2022-08-18T03:35:31.329Z,18.20
2022-08-18T03:38:16.591Z,18.19
2022-08-18T03:41:02.013Z,18.18
2022-08-18T03:43:50.951Z,18.21
2022-08-18T03:46:36.918Z,18.17
2022-08-18T03:49:22.363Z,18.18
2022-08-18T03:52:09.689Z,18.18
2022-08-18T03:54:54.884Z,18.17
2022-08-18T03:57:40.183Z,18.16
2022-08-18T04:00:27.361Z,18.17
2022-08-18T04:03:12.361Z,18.15
2022-08-18T04:05:57.717Z,18.09
2022-08-18T04:08:44.236Z,18.09
2022-08-18T04:11:35.795Z,17.98
2022-08-18T04:14:25.124Z,18.06
2022-08-18T04:17:10.623Z,17.98
2022-08-18T04:19:56.917Z,17.92
2022-08-18T04:22:42.750Z,17.93
2022-08-18T04:25:32.539Z,17.87
2022-08-18T04:28:18.291Z,17.85
2022-08-18T04:31:10.298Z,17.85
2022-08-18T04:33:58.332Z,17.83
2022-08-18T04:36:44.096Z,17.72
2022-08-18T04:39:30.200Z,17.66
2022-08-18T04:42:15.990Z,17.75
2022-08-18T04:45:01.389Z,17.74
2022-08-18T04:47:46.651Z,17.80
2022-08-18T04:50:32.025Z,17.80
2022-08-18T04:53:35.889Z,17.81
2022-08-18T04:56:27.118Z,17.80
2022-08-18T04:59:13.853Z,17.80
2022-08-18T05:02:01.700Z,17.79
2022-08-18T05:04:47.210Z,17.79
2022-08-18T05:07:32.477Z,17.76
2022-08-18T05:10:17.840Z,17.82
2022-08-18T05:13:03.335Z,17.76
2022-08-18T05:16:18.043Z,17.76
2022-08-18T05:19:07.117Z,17.85
2022-08-18T05:21:57.655Z,17.84
2022-08-18T05:24:46.293Z,17.89
2022-08-18T05:27:36.870Z,17.92
2022-08-18T05:30:22.160Z,17.95
2022-08-18T05:33:10.779Z,17.99
2022-08-18T05:36:05.481Z,18.00
2022-08-18T05:39:04.691Z,18.07
2022-08-18T05:41:52.713Z,18.00
2022-08-18T05:44:43.003Z,17.98
2022-08-18T05:47:32.818Z,18.03
2022-08-18T05:50:20.789Z,18.02
2022-08-18T05:53:44.202Z,18.04
2022-08-18T05:56:49.043Z,18.08
2022-08-18T05:59:39.421Z,18.16
2022-08-18T06:02:32.376Z,18.15
2022-08-18T06:05:52.803Z,18.15
2022-08-18T06:08:45.520Z,18.15
2022-08-18T06:11:30.521Z,18.16
2022-08-18T06:14:16.284Z,18.21
2022-08-18T06:17:08.585Z,18.19
2022-08-18T06:20:10.264Z,18.19
2022-08-18T06:23:18.492Z,18.23
2022-08-18T06:26:34.307Z,18.20
2022-08-18T06:29:24.864Z,18.34
2022-08-18T06:32:34.469Z,18.42
2022-08-18T06:35:25.453Z,18.45
2022-08-18T06:38:38.364Z,18.49
2022-08-18T06:41:41.506Z,18.55
2022-08-18T06:44:49.109Z,18.57
2022-08-18T06:47:44.601Z,18.50
2022-08-18T06:50:43.545Z,18.60
2022-08-18T06:53:52.069Z,18.64
2022-08-18T06:56:40.113Z,18.72
2022-08-18T06:59:29.666Z,18.77
2022-08-18T07:02:26.633Z,18.82
2022-08-18T07:05:14.651Z,18.82
2022-08-18T07:08:05.746Z,18.74
2022-08-18T07:10:52.573Z,18.71
2022-08-18T07:13:45.289Z,18.80
2022-08-18T07:17:00.743Z,18.86
2022-08-18T07:19:38.854Z,18.89
2022-08-18T07:22:38.939Z,18.94
2022-08-18T07:25:45.253Z,19.00
2022-08-18T07:28:38.072Z,19.13
2022-08-18T07:31:46.553Z,19.17
2022-08-18T07:34:42.751Z,19.26
2022-08-18T07:37:36.932Z,19.26
2022-08-18T07:40:32.792Z,19.39
2022-08-18T07:43:27.585Z,19.51
2022-08-18T07:46:23.383Z,19.64
2022-08-18T07:49:08.369Z,19.64
2022-08-18T07:52:01.374Z,19.66
2022-08-18T07:54:57.545Z,19.80
2022-08-18T07:57:47.823Z,19.93
2022-08-18T08:00:58.860Z,20.04
2022-08-18T08:03:59.242Z,20.06
2022-08-18T08:07:26.243Z,19.96
2022-08-18T08:10:11.953Z,20.04
2022-08-18T08:13:51.351Z,20.14
2022-08-18T08:16:40.626Z,20.26
2022-08-18T08:20:00.903Z,20.28
2022-08-18T08:23:05.805Z,20.21
2022-08-18T08:26:24.694Z,20.18
2022-08-18T08:29:12.780Z,20.12
2022-08-18T08:32:06.848Z,20.19
2022-08-18T08:35:03.496Z,20.18
2022-08-18T08:38:12.327Z,20.23
2022-08-18T08:41:12.991Z,20.45
2022-08-18T08:44:17.645Z,20.45
2022-08-18T08:47:10.702Z,20.56
2022-08-18T08:50:02.757Z,20.54
2022-08-18T08:52:57.200Z,20.59
2022-08-18T08:55:48.527Z,20.67
2022-08-18T08:58:59.020Z,20.74
2022-08-18T09:01:50.137Z,20.98
2022-08-18T09:04:35.554Z,21.05
2022-08-18T09:07:26.785Z,21.21
2022-08-18T09:10:24.280Z,21.25
2022-08-18T09:13:29.339Z,21.21
2022-08-18T09:16:36.544Z,21.07
2022-08-18T09:19:47.757Z,21.23
2022-08-18T09:22:54.485Z,21.19
2022-08-18T09:25:41.762Z,21.21
2022-08-18T09:28:29.709Z,21.15
2022-08-18T09:31:19.390Z,21.04
2022-08-18T09:34:21.762Z,21.04
2022-08-18T09:37:21.526Z,21.22
2022-08-18T09:40:59.296Z,21.31
2022-08-18T09:44:18.033Z,21.63
2022-08-18T09:47:13.291Z,21.70
2022-08-18T09:50:04.548Z,21.93
2022-08-18T09:52:50.002Z,22.26
2022-08-18T09:55:35.877Z,22.24
2022-08-18T09:58:49.888Z,22.20
2022-08-18T10:01:39.884Z,22.23
2022-08-18T10:04:33.096Z,22.21
2022-08-18T10:07:22.033Z,22.11
2022-08-18T10:11:01.300Z,22.14
2022-08-18T10:13:58.954Z,22.15
2022-08-18T10:17:23.299Z,22.34
2022-08-18T10:20:09.739Z,22.39
2022-08-18T10:23:49.533Z,22.82
2022-08-18T10:26:54.049Z,22.78
2022-08-18T10:29:51.305Z,23.00
2022-08-18T10:35:58.929Z,23.32
2022-08-18T10:38:49.683Z,23.20
2022-08-18T10:41:41.475Z,23.03
2022-08-18T10:44:29.634Z,22.94
2022-08-18T10:50:53.262Z,22.85
2022-08-18T10:53:50.643Z,22.78
2022-08-18T10:56:52.328Z,22.65
2022-08-18T11:00:04.972Z,22.44
2022-08-18T11:06:28.338Z,22.66
2022-08-18T11:09:13.793Z,22.74
2022-08-18T11:12:01.817Z,22.86
2022-08-18T11:14:55.736Z,22.98
2022-08-18T11:18:05.603Z,23.02
2022-08-18T11:21:43.443Z,23.19
2022-08-18T11:24:32.020Z,23.50
2022-08-18T11:27:23.885Z,24.03
2022-08-18T11:30:12.346Z,24.21
2022-08-18T11:33:01.149Z,24.00
2022-08-18T11:35:59.256Z,23.96
2022-08-18T11:38:56.582Z,24.50
2022-08-18T11:41:48.704Z,24.74
2022-08-18T11:44:38.232Z,25.01
2022-08-18T11:47:27.871Z,25.45
2022-08-18T11:50:27.505Z,25.70
2022-08-18T11:53:35.248Z,25.58
2022-08-18T11:56:35.687Z,25.27
2022-08-18T11:59:52.581Z,24.92
2022-08-18T12:02:31.338Z,24.64
2022-08-18T12:05:18.030Z,24.51
2022-08-18T12:08:07.672Z,24.34
2022-08-18T12:11:26.521Z,24.28
2022-08-18T12:17:25.926Z,24.07
2022-08-18T12:20:15.611Z,24.72
2022-08-18T12:23:01.572Z,25.21
2022-08-18T12:25:46.858Z,25.61
2022-08-18T12:28:37.154Z,26.00
2022-08-18T12:31:28.894Z,26.12
2022-08-18T12:34:27.455Z,26.31
2022-08-18T12:37:54.451Z,26.40
2022-08-18T12:40:22.783Z,26.27
2022-08-18T12:43:08.288Z,26.61
2022-08-18T12:45:53.609Z,26.91
2022-08-18T12:48:39.601Z,27.22
2022-08-18T12:51:30.647Z,27.30
2022-08-18T12:54:16.072Z,27.20
2022-08-18T12:57:06.155Z,27.48
2022-08-18T12:59:54.796Z,26.86
2022-08-18T13:02:42.169Z,27.32
2022-08-18T13:05:30.058Z,27.62
2022-08-18T13:08:27.623Z,27.87
2022-08-18T13:11:23.417Z,28.18
2022-08-18T13:14:09.334Z,28.36
2022-08-18T13:16:55.296Z,27.67
2022-08-18T13:19:40.555Z,27.32
2022-08-18T13:22:32.406Z,27.55
2022-08-18T13:25:32.542Z,27.57
2022-08-18T13:28:17.922Z,27.20
2022-08-18T13:31:05.332Z,27.20
2022-08-18T13:33:57.914Z,27.43
2022-08-18T13:36:46.209Z,27.15
2022-08-18T13:39:34.268Z,27.64
2022-08-18T13:42:26.468Z,27.83
2022-08-18T13:45:22.697Z,28.07
2022-08-18T13:48:11.342Z,28.24
2022-08-18T13:51:01.095Z,27.98
2022-08-18T13:53:58.901Z,27.57
2022-08-18T13:56:52.332Z,27.02
2022-08-18T13:59:38.307Z,27.25
2022-08-18T14:02:31.596Z,27.78
2022-08-18T14:05:17.638Z,27.98
2022-08-18T14:08:03.723Z,28.00
2022-08-18T14:10:55.850Z,28.01
2022-08-18T14:13:43.924Z,28.28
2022-08-18T14:16:29.697Z,28.45
2022-08-18T14:19:34.538Z,28.38
2022-08-18T14:22:38.263Z,28.57
2022-08-18T14:25:43.099Z,28.27
2022-08-18T14:28:29.448Z,27.92
2022-08-18T14:31:14.756Z,28.13
2022-08-18T14:34:06.412Z,28.29
2022-08-18T14:36:51.532Z,28.16
2022-08-18T14:39:38.454Z,28.54
2022-08-18T14:42:41.102Z,28.48
2022-08-18T14:45:34.208Z,28.28
2022-08-18T14:48:22.921Z,28.18
2022-08-18T14:51:09.870Z,28.18
2022-08-18T14:53:55.965Z,27.85
2022-08-18T14:56:41.198Z,28.17
2022-08-18T14:59:28.504Z,28.11
2022-08-18T15:02:13.686Z,28.13
2022-08-18T15:04:58.905Z,28.05
2022-08-18T15:07:45.917Z,27.98
2022-08-18T15:10:33.088Z,27.81
2022-08-18T15:13:18.306Z,27.99
2022-08-18T15:16:04.144Z,27.84
2022-08-18T15:18:49.761Z,27.67
2022-08-18T15:21:54.558Z,27.45
2022-08-18T15:25:00.446Z,27.49
2022-08-18T15:27:45.832Z,27.43
2022-08-18T15:30:32.098Z,27.30
2022-08-18T15:33:18.523Z,27.08
2022-08-18T15:36:10.224Z,26.92
2022-08-18T15:38:56.677Z,26.67
2022-08-18T15:44:34.642Z,26.39
2022-08-18T15:47:20.914Z,26.52
2022-08-18T15:50:21.632Z,26.55
2022-08-18T15:53:12.220Z,26.34
2022-08-18T15:55:58.710Z,26.16
2022-08-18T15:58:50.129Z,26.04
2022-08-18T16:01:40.557Z,26.00
2022-08-18T16:04:27.586Z,25.85
2022-08-18T16:07:14.809Z,25.71
2022-08-18T16:10:04.790Z,25.58
2022-08-18T16:12:51.089Z,25.66
2022-08-18T16:15:42.053Z,25.55
2022-08-18T16:18:29.466Z,25.52
2022-08-18T16:21:17.762Z,25.43
2022-08-18T16:24:03.163Z,25.37
2022-08-18T16:26:48.066Z,25.25
2022-08-18T16:29:33.519Z,25.00
2022-08-18T16:32:18.617Z,24.95
2022-08-18T16:35:04.927Z,24.87
2022-08-18T16:37:50.269Z,24.75
2022-08-18T16:40:36.647Z,24.63
2022-08-18T16:43:21.888Z,24.39
2022-08-18T16:46:12.463Z,24.38
2022-08-18T16:48:58.437Z,24.26
2022-08-18T16:51:45.487Z,24.11
2022-08-18T16:54:31.190Z,24.04
2022-08-18T16:57:53.327Z,23.92
2022-08-18T17:00:59.135Z,23.96
2022-08-18T17:04:03.427Z,23.89
2022-08-18T17:06:49.683Z,23.78
2022-08-18T17:09:35.573Z,23.76
2022-08-18T17:12:20.881Z,23.73
2022-08-18T17:15:06.519Z,23.69
2022-08-18T17:17:51.630Z,23.66
2022-08-18T17:20:36.961Z,23.60
2022-08-18T17:23:22.701Z,23.53
2022-08-18T17:26:33.233Z,23.48
2022-08-18T17:29:22.983Z,23.41
2022-08-18T17:32:24.612Z,23.33
2022-08-18T17:35:35.057Z,23.39
2022-08-18T17:38:51.071Z,23.30
2022-08-18T17:41:56.385Z,23.20
2022-08-18T17:44:46.276Z,23.18
2022-08-18T17:47:50.577Z,23.15
2022-08-18T17:50:58.778Z,23.04
2022-08-18T17:53:45.324Z,23.03
2022-08-18T17:56:42.332Z,22.88
2022-08-18T17:59:52.030Z,22.87
2022-08-18T18:02:38.180Z,22.83
2022-08-18T18:05:23.152Z,22.76
2022-08-18T18:08:09.721Z,22.72
2022-08-18T18:11:09.846Z,22.69
2022-08-18T18:13:55.384Z,22.62
2022-08-18T18:16:40.537Z,22.53
2022-08-18T18:19:29.899Z,22.53
2022-08-18T18:22:24.103Z,22.53
2022-08-18T18:25:11.162Z,22.44
2022-08-18T18:27:56.463Z,22.45
2022-08-18T18:30:43.766Z,22.36
2022-08-18T18:33:30.498Z,22.23
2022-08-18T18:36:34.980Z,22.25
2022-08-18T18:39:37.987Z,22.20
2022-08-18T18:42:30.131Z,22.13
2022-08-18T18:45:22.881Z,22.05
2022-08-18T18:48:45.059Z,21.99
2022-08-18T18:52:13.563Z,21.93
2022-08-18T18:55:07.328Z,21.86
2022-08-18T18:58:29.752Z,21.80
2022-08-18T19:01:43.892Z,21.63
2022-08-18T19:04:33.825Z,21.60
2022-08-18T19:07:25.375Z,21.52
2022-08-18T19:10:18.539Z,21.40
2022-08-18T19:13:32.720Z,21.34
2022-08-18T19:16:30.803Z,21.21
2022-08-18T19:19:36.109Z,21.28
2022-08-18T19:22:33.226Z,21.19
2022-08-18T19:25:22.897Z,21.08
2022-08-18T19:28:28.362Z,21.04
2022-08-18T19:31:34.803Z,20.98
2022-08-18T19:34:30.096Z,20.89
2022-08-18T19:37:18.329Z,20.76
2022-08-18T19:40:21.261Z,20.68
2022-08-18T19:43:12.437Z,20.68
2022-08-18T19:46:16.294Z,20.65
2022-08-18T19:49:16.622Z,20.57
2022-08-18T19:52:46.233Z,20.61
2022-08-18T19:55:53.928Z,20.45
2022-08-18T19:59:15.530Z,20.37
2022-08-18T20:02:41.861Z,20.32
2022-08-18T20:05:32.885Z,20.28
2022-08-18T20:08:50.522Z,20.19
2022-08-18T20:12:01.025Z,20.11
2022-08-18T20:15:12.682Z,19.99
2022-08-18T20:18:06.381Z,19.95
2022-08-18T20:21:20.202Z,20.42
2022-08-18T20:24:24.132Z,21.19
2022-08-18T20:27:34.994Z,21.49
2022-08-18T20:30:29.911Z,20.75
2022-08-18T20:33:24.181Z,20.25
2022-08-18T20:36:28.655Z,19.98
2022-08-18T20:39:32.855Z,19.86
2022-08-18T20:42:21.043Z,19.70
2022-08-18T20:45:13.316Z,19.69
2022-08-18T20:48:16.278Z,19.63
2022-08-18T20:51:15.038Z,19.59
2022-08-18T20:54:18.086Z,19.45
2022-08-18T20:57:05.953Z,19.37
2022-08-18T21:00:03.817Z,19.39
2022-08-18T21:02:55.238Z,19.31
2022-08-18T21:05:44.272Z,19.34
2022-08-18T21:08:32.942Z,19.28
2022-08-18T21:11:30.863Z,19.14
2022-08-18T21:14:25.778Z,19.17
2022-08-18T21:17:15.379Z,19.16
2022-08-18T21:20:04.540Z,19.13
2022-08-18T21:22:51.075Z,19.12
2022-08-18T21:25:40.944Z,19.03
2022-08-18T21:28:31.393Z,19.07
2022-08-18T21:31:42.510Z,19.02
2022-08-18T21:34:41.806Z,18.91
2022-08-18T21:37:32.754Z,18.90
2022-08-18T21:40:18.622Z,18.81
2022-08-18T21:43:03.733Z,18.86
2022-08-18T21:45:58.965Z,18.84
2022-08-18T21:48:50.808Z,18.81
2022-08-18T21:51:48.584Z,18.68
2022-08-18T21:54:34.377Z,18.70
2022-08-18T21:57:26.593Z,18.71
2022-08-18T22:00:23.848Z,18.71
2022-08-18T22:03:26.007Z,18.68
2022-08-18T22:06:22.200Z,18.58
2022-08-18T22:09:33.415Z,18.65
2022-08-18T22:12:52.126Z,18.58
2022-08-18T22:15:46.155Z,18.58
2022-08-18T22:18:39.602Z,18.50
2022-08-18T22:21:32.510Z,18.50
2022-08-18T22:24:21.366Z,18.39
2022-08-18T22:27:20.014Z,18.42
2022-08-18T22:30:05.441Z,18.41
2022-08-18T22:32:50.761Z,18.36
2022-08-18T22:35:35.876Z,18.39
2022-08-18T22:38:21.214Z,18.33
2022-08-18T22:41:06.372Z,18.44
2022-08-18T22:43:55.106Z,18.47
2022-08-18T22:46:40.742Z,18.51
2022-08-18T22:49:26.306Z,18.50
2022-08-18T22:52:15.421Z,18.64
2022-08-18T22:55:02.763Z,18.68
2022-08-18T22:57:55.900Z,18.65
2022-08-18T23:00:42.660Z,18.65
2022-08-18T23:03:28.447Z,18.68
2022-08-18T23:06:14.826Z,18.70
2022-08-18T23:09:02.844Z,18.69
2022-08-18T23:11:47.779Z,18.75
2022-08-18T23:14:33.778Z,18.68
2022-08-18T23:17:21.411Z,18.76
2022-08-18T23:20:11.398Z,18.80
2022-08-18T23:22:56.961Z,18.81
2022-08-18T23:25:42.761Z,18.76
2022-08-18T23:28:28.142Z,18.82
2022-08-18T23:31:13.806Z,18.75
2022-08-18T23:34:00.496Z,18.82
2022-08-18T23:36:52.029Z,18.83
2022-08-18T23:39:38.885Z,18.82
2022-08-18T23:42:23.890Z,18.92
2022-08-18T23:45:10.131Z,18.98
2022-08-18T23:47:57.738Z,18.94
2022-08-18T23:50:44.934Z,18.91
2022-08-18T23:53:31.089Z,18.90
2022-08-18T23:56:15.972Z,18.84
2022-08-18T23:59:02.342Z,18.98
